createdAt,value
2023-07-31T00:02:22.410Z,99460.53
2023-07-31T00:04:50.143Z,99465.09
2023-07-31T00:07:17.552Z,99458.91
2023-07-31T00:09:44.927Z,99474.34
2023-07-31T00:12:12.640Z,99471.34
2023-07-31T00:14:40.029Z,99471.50
2023-07-31T00:17:07.431Z,99467.63
2023-07-31T00:19:35.140Z,99467.16
2023-07-31T00:22:02.552Z,99467.91
2023-07-31T00:24:29.948Z,99455.28
2023-07-31T00:26:57.758Z,99468.72
2023-07-31T00:29:25.178Z,99468.97
2023-07-31T00:31:52.602Z,99479.66
2023-07-31T00:34:20.277Z,99467.41
2023-07-31T00:36:47.689Z,99472.22
2023-07-31T00:39:18.032Z,99474.25
2023-07-31T00:41:46.141Z,99485.75
2023-07-31T00:44:13.533Z,99474.87
2023-07-31T00:46:41.191Z,99483.66
2023-07-31T00:49:09.075Z,99484.22
2023-07-31T00:51:36.434Z,99479.66
2023-07-31T00:54:04.159Z,99483.59
2023-07-31T00:56:31.903Z,99477.06
2023-07-31T00:58:59.300Z,99476.19
2023-07-31T01:01:26.777Z,99478.38
2023-07-31T01:03:57.420Z,99484.28
2023-07-31T01:06:49.377Z,99486.16
2023-07-31T01:09:40.265Z,99485.50
2023-07-31T01:12:08.107Z,99487.66
2023-07-31T01:14:36.190Z,99494.78
2023-07-31T01:17:03.638Z,99499.53
2023-07-31T01:19:31.712Z,99494.88
2023-07-31T01:22:24.403Z,99511.94
2023-07-31T01:25:06.554Z,99511.59
2023-07-31T01:27:37.156Z,99506.91
2023-07-31T01:30:15.308Z,99503.75
2023-07-31T01:32:44.027Z,99508.22
2023-07-31T01:35:11.477Z,99495.69
2023-07-31T01:37:38.894Z,99496.31
2023-07-31T01:40:07.333Z,99483.22
2023-07-31T01:42:34.753Z,99480.72
2023-07-31T01:45:02.188Z,99481.00
2023-07-31T01:47:29.935Z,99464.12
2023-07-31T01:49:57.336Z,99465.28
2023-07-31T01:52:24.999Z,99461.34
2023-07-31T01:54:53.093Z,99450.72
2023-07-31T01:57:20.464Z,99464.44
2023-07-31T01:59:47.900Z,99461.75
2023-07-31T02:02:15.614Z,99463.19
2023-07-31T02:04:43.321Z,99456.09
2023-07-31T02:07:10.684Z,99470.88
2023-07-31T02:09:38.072Z,99475.44
2023-07-31T02:12:06.165Z,99466.25
2023-07-31T02:14:33.512Z,99467.19
2023-07-31T02:17:00.921Z,99465.88
2023-07-31T02:19:28.620Z,99466.84
2023-07-31T02:21:56.053Z,99470.03
2023-07-31T02:24:24.806Z,99472.28
2023-07-31T02:26:52.481Z,99473.03
2023-07-31T02:29:19.884Z,99474.53
2023-07-31T02:31:47.297Z,99477.00
2023-07-31T02:34:15.024Z,99476.34
2023-07-31T02:36:43.052Z,99485.91
2023-07-31T02:39:10.433Z,99489.47
2023-07-31T02:41:38.146Z,99479.78
2023-07-31T02:44:05.582Z,99480.50
2023-07-31T02:46:32.972Z,99498.34
2023-07-31T02:49:00.706Z,99501.44
2023-07-31T02:51:28.254Z,99511.81
2023-07-31T02:53:55.703Z,99517.47
2023-07-31T02:56:23.451Z,99512.44
2023-07-31T02:58:50.870Z,99511.97
2023-07-31T03:01:18.369Z,99508.59
2023-07-31T03:03:46.133Z,99517.44
2023-07-31T03:06:13.529Z,99508.09
2023-07-31T03:08:40.898Z,99518.06
2023-07-31T03:11:08.572Z,99520.75
2023-07-31T03:13:35.939Z,99507.25
2023-07-31T03:16:03.462Z,99525.72
2023-07-31T03:18:31.316Z,99535.16
2023-07-31T03:20:58.716Z,99536.31
2023-07-31T03:23:26.858Z,99532.41
2023-07-31T03:26:01.504Z,99534.13
2023-07-31T03:28:29.285Z,99533.50
2023-07-31T03:30:57.133Z,99532.00
2023-07-31T03:33:24.529Z,99520.78
2023-07-31T03:35:52.092Z,99525.12
2023-07-31T03:38:19.965Z,99536.81
2023-07-31T03:40:47.388Z,99538.78
2023-07-31T03:43:14.806Z,99536.50
2023-07-31T03:45:43.833Z,99530.63
2023-07-31T03:48:12.383Z,99535.50
2023-07-31T03:50:39.814Z,99539.19
2023-07-31T03:53:07.520Z,99541.53
2023-07-31T03:55:34.928Z,99537.25
2023-07-31T03:58:02.353Z,99534.63
2023-07-31T04:00:30.034Z,99539.16
2023-07-31T04:02:57.734Z,99528.78
2023-07-31T04:05:25.271Z,99538.06
2023-07-31T04:07:52.678Z,99539.72
2023-07-31T04:10:20.402Z,99538.84
2023-07-31T04:12:47.833Z,99541.22
2023-07-31T04:15:15.251Z,99537.13
2023-07-31T04:17:43.230Z,99526.84
2023-07-31T04:20:11.219Z,99531.03
2023-07-31T04:22:38.656Z,99544.75
2023-07-31T04:25:06.722Z,99536.25
2023-07-31T04:27:34.125Z,99529.84
2023-07-31T04:30:01.578Z,99530.13
2023-07-31T04:32:30.788Z,99532.00
2023-07-31T04:34:58.213Z,99535.00
2023-07-31T04:37:25.586Z,99525.72
2023-07-31T04:39:53.241Z,99529.94
2023-07-31T04:42:20.645Z,99535.66
2023-07-31T04:44:48.082Z,99522.41
2023-07-31T04:47:15.758Z,99521.91
2023-07-31T04:49:43.191Z,99521.00
2023-07-31T04:52:10.562Z,99520.66
2023-07-31T04:54:38.229Z,99535.13
2023-07-31T04:57:07.664Z,99529.63
2023-07-31T04:59:35.210Z,99535.03
2023-07-31T05:02:02.937Z,99530.72
2023-07-31T05:04:30.365Z,99532.19
2023-07-31T05:06:57.828Z,99539.38
2023-07-31T05:09:25.508Z,99532.53
2023-07-31T05:11:52.870Z,99535.56
2023-07-31T05:14:21.375Z,99523.28
2023-07-31T05:16:49.110Z,99517.34
2023-07-31T05:19:16.556Z,99509.69
2023-07-31T05:21:43.993Z,99513.31
2023-07-31T05:24:11.741Z,99531.53
2023-07-31T05:26:39.535Z,99533.31
2023-07-31T05:29:07.040Z,99533.22
2023-07-31T05:31:34.692Z,99529.13
2023-07-31T05:34:02.103Z,99520.63
2023-07-31T05:36:29.500Z,99518.34
2023-07-31T05:38:57.165Z,99517.19
2023-07-31T05:41:24.625Z,99516.91
2023-07-31T05:43:52.675Z,99516.41
2023-07-31T05:46:20.423Z,99534.53
2023-07-31T05:48:47.856Z,99533.25
2023-07-31T05:51:15.262Z,99540.59
2023-07-31T05:53:42.996Z,99536.87
2023-07-31T05:56:10.359Z,99542.50
2023-07-31T05:58:37.760Z,99529.34
2023-07-31T06:01:05.506Z,99526.88
2023-07-31T06:03:33.269Z,99516.69
2023-07-31T06:06:00.985Z,99510.81
2023-07-31T06:08:28.396Z,99524.31
2023-07-31T06:10:56.164Z,99518.34
2023-07-31T06:13:23.528Z,99545.72
2023-07-31T06:15:51.021Z,99539.84
2023-07-31T06:18:18.721Z,99523.97
2023-07-31T06:20:46.150Z,99551.50
2023-07-31T06:23:13.568Z,99539.13
2023-07-31T06:25:41.235Z,99518.41
2023-07-31T06:28:08.633Z,99528.13
2023-07-31T06:30:36.074Z,99538.25
2023-07-31T06:33:03.998Z,99538.78
2023-07-31T06:35:31.535Z,99542.22
2023-07-31T06:37:58.879Z,99549.59
2023-07-31T06:40:26.636Z,99537.75
2023-07-31T06:42:54.049Z,99551.50
2023-07-31T06:45:21.506Z,99548.06
2023-07-31T06:47:49.235Z,99554.66
2023-07-31T06:50:16.734Z,99569.91
2023-07-31T06:52:44.317Z,99554.41
2023-07-31T06:55:21.715Z,99569.81
2023-07-31T06:57:49.464Z,99566.66
2023-07-31T07:00:17.790Z,99567.25
2023-07-31T07:02:45.313Z,99558.41
2023-07-31T07:05:12.848Z,99557.75
2023-07-31T07:07:40.558Z,99557.75
2023-07-31T07:10:08.433Z,99558.41
2023-07-31T07:12:36.624Z,99556.38
2023-07-31T07:15:04.550Z,99558.41
2023-07-31T07:17:33.905Z,99538.06
2023-07-31T07:20:01.543Z,99546.13
2023-07-31T07:22:30.424Z,99564.09
2023-07-31T07:24:57.904Z,99547.66
2023-07-31T07:27:25.340Z,99568.88
2023-07-31T07:29:53.795Z,99598.22
2023-07-31T07:32:21.507Z,99573.75
2023-07-31T07:34:49.512Z,99552.88
2023-07-31T07:37:17.356Z,99567.25
2023-07-31T07:39:45.014Z,99574.44
2023-07-31T07:42:12.748Z,99585.97
2023-07-31T07:44:40.485Z,99584.88
2023-07-31T07:47:08.102Z,99577.97
2023-07-31T07:49:36.072Z,99594.44
2023-07-31T07:52:04.216Z,99582.06
2023-07-31T07:54:31.985Z,99572.19
2023-07-31T07:56:59.363Z,99567.22
2023-07-31T07:59:27.036Z,99572.22
2023-07-31T08:01:54.589Z,99565.63
2023-07-31T08:04:22.284Z,99559.28
2023-07-31T08:06:49.770Z,99578.94
2023-07-31T08:09:17.194Z,99545.47
2023-07-31T08:11:44.844Z,99568.28
2023-07-31T08:14:12.260Z,99591.88
2023-07-31T08:16:39.977Z,99585.22
2023-07-31T08:19:07.910Z,99583.13
2023-07-31T08:21:35.588Z,99573.50
2023-07-31T08:24:03.026Z,99567.56
2023-07-31T08:26:30.720Z,99547.34
2023-07-31T08:28:58.758Z,99559.31
2023-07-31T08:31:26.173Z,99564.91
2023-07-31T08:33:53.842Z,99554.81
2023-07-31T08:36:21.268Z,99562.25
2023-07-31T08:38:48.638Z,99552.72
2023-07-31T08:41:17.951Z,99579.88
2023-07-31T08:43:48.685Z,99569.69
2023-07-31T08:46:16.471Z,99562.88
2023-07-31T08:48:44.064Z,99565.13
2023-07-31T08:51:11.475Z,99550.94
2023-07-31T08:53:39.115Z,99561.97
2023-07-31T08:56:06.520Z,99566.56
2023-07-31T08:58:34.112Z,99579.16
2023-07-31T09:01:05.620Z,99577.47
2023-07-31T09:03:35.079Z,99574.78
2023-07-31T09:06:03.873Z,99582.84
2023-07-31T09:08:31.759Z,99562.09
2023-07-31T09:11:04.340Z,99542.97
2023-07-31T09:13:32.449Z,99558.03
2023-07-31T09:16:00.189Z,99553.78
2023-07-31T09:18:27.741Z,99541.47
2023-07-31T09:21:08.454Z,99525.84
2023-07-31T09:23:45.897Z,99556.25
2023-07-31T09:26:33.343Z,99536.19
2023-07-31T09:29:09.312Z,99547.06
2023-07-31T09:31:41.949Z,99548.94
2023-07-31T09:34:09.596Z,99533.78
2023-07-31T09:36:47.300Z,99529.13
2023-07-31T09:39:15.407Z,99522.94
2023-07-31T09:41:48.294Z,99518.41
2023-07-31T09:44:15.664Z,99515.56
2023-07-31T09:46:44.151Z,99515.84
2023-07-31T09:49:12.731Z,99521.56
2023-07-31T09:51:40.911Z,99544.22
2023-07-31T09:54:15.339Z,99523.53
2023-07-31T09:56:47.347Z,99517.84
2023-07-31T09:59:21.868Z,99523.72
2023-07-31T10:01:51.289Z,99523.13
2023-07-31T10:04:21.847Z,99529.78
2023-07-31T10:06:49.252Z,99538.88
2023-07-31T10:09:16.746Z,99529.81
2023-07-31T10:11:57.512Z,99512.28
2023-07-31T10:14:25.044Z,99536.19
2023-07-31T10:16:52.691Z,99519.03
2023-07-31T10:19:20.134Z,99529.97
2023-07-31T10:21:47.689Z,99515.09
2023-07-31T10:24:15.445Z,99517.12
2023-07-31T10:26:42.986Z,99524.00
2023-07-31T10:29:10.447Z,99502.91
2023-07-31T10:31:38.084Z,99510.78
2023-07-31T10:34:05.944Z,99510.09
2023-07-31T10:36:33.340Z,99530.69
2023-07-31T10:39:01.033Z,99509.22
2023-07-31T10:41:32.255Z,99527.06
2023-07-31T10:44:03.036Z,99512.94
2023-07-31T10:46:30.751Z,99492.44
2023-07-31T10:49:02.318Z,99508.38
2023-07-31T10:51:36.305Z,99510.94
2023-07-31T10:54:13.780Z,99500.03
2023-07-31T10:56:41.665Z,99499.09
2023-07-31T10:59:13.652Z,99509.00
2023-07-31T11:01:54.212Z,99514.97
2023-07-31T11:04:28.493Z,99518.06
2023-07-31T11:06:59.902Z,99516.97
2023-07-31T11:09:31.869Z,99529.41
2023-07-31T11:12:00.006Z,99498.47
2023-07-31T11:14:27.729Z,99500.66
2023-07-31T11:16:55.194Z,99519.31
2023-07-31T11:19:24.696Z,99505.28
2023-07-31T11:21:54.000Z,99510.47
2023-07-31T11:24:21.404Z,99504.72
2023-07-31T11:26:52.763Z,99488.69
2023-07-31T11:29:21.319Z,99501.19
2023-07-31T11:31:49.297Z,99513.72
2023-07-31T11:34:18.329Z,99534.63
2023-07-31T11:36:56.574Z,99513.87
2023-07-31T11:39:24.001Z,99503.50
2023-07-31T11:41:51.709Z,99495.94
2023-07-31T11:44:27.376Z,99489.78
2023-07-31T11:46:59.066Z,99485.16
2023-07-31T11:49:26.898Z,99486.25
2023-07-31T11:51:54.297Z,99502.56
2023-07-31T11:54:22.053Z,99492.25
2023-07-31T11:56:50.752Z,99476.47
2023-07-31T11:59:18.211Z,99513.16
2023-07-31T12:01:45.938Z,99481.66
2023-07-31T12:04:13.787Z,99479.16
2023-07-31T12:06:41.574Z,99499.84
2023-07-31T12:09:09.152Z,99480.78
2023-07-31T12:11:46.527Z,99500.84
2023-07-31T12:14:27.165Z,99471.31
2023-07-31T12:19:30.859Z,99461.81
2023-07-31T12:22:00.066Z,99459.63
2023-07-31T12:24:28.024Z,99455.53
2023-07-31T12:26:56.347Z,99486.25
2023-07-31T12:29:24.082Z,99460.16
2023-07-31T12:31:51.644Z,99465.44
2023-07-31T12:34:19.755Z,99468.59
2023-07-31T12:36:47.502Z,99466.94
2023-07-31T12:39:15.486Z,99450.41
2023-07-31T12:41:42.882Z,99452.56
2023-07-31T12:44:12.422Z,99450.13
2023-07-31T12:46:40.110Z,99447.66
2023-07-31T12:49:07.844Z,99445.16
2023-07-31T12:51:35.497Z,99436.72
2023-07-31T12:54:02.928Z,99436.78
2023-07-31T12:56:30.339Z,99439.53
2023-07-31T12:58:57.984Z,99439.53
2023-07-31T13:01:25.415Z,99428.91
2023-07-31T13:03:53.025Z,99423.69
2023-07-31T13:06:20.896Z,99417.00
2023-07-31T13:08:48.384Z,99435.16
2023-07-31T13:11:15.849Z,99426.19
2023-07-31T13:13:43.601Z,99434.06
2023-07-31T13:16:11.098Z,99425.38
2023-07-31T13:18:38.503Z,99405.03
2023-07-31T13:21:06.200Z,99410.59
2023-07-31T13:23:33.572Z,99408.00
2023-07-31T13:26:00.949Z,99410.69
2023-07-31T13:28:28.633Z,99417.62
2023-07-31T13:30:56.167Z,99409.34
2023-07-31T13:33:36.190Z,99403.19
2023-07-31T13:36:05.190Z,99403.56
2023-07-31T13:38:32.641Z,99407.28
2023-07-31T13:41:00.294Z,99403.50
2023-07-31T13:43:27.959Z,99406.22
2023-07-31T13:45:55.357Z,99396.25
2023-07-31T13:48:22.750Z,99411.50
2023-07-31T13:50:50.382Z,99414.56
2023-07-31T13:53:17.774Z,99402.44
2023-07-31T13:55:46.788Z,99398.94
2023-07-31T13:58:14.475Z,99392.94
2023-07-31T14:00:41.881Z,99399.81
2023-07-31T14:03:09.604Z,99389.84
2023-07-31T14:05:37.024Z,99397.06
2023-07-31T14:08:04.610Z,99397.63
2023-07-31T14:10:32.228Z,99395.12
2023-07-31T14:12:59.575Z,99381.44
2023-07-31T14:15:27.624Z,99389.94
2023-07-31T14:17:58.333Z,99392.06
2023-07-31T14:20:27.388Z,99382.78
2023-07-31T14:22:55.066Z,99379.03
2023-07-31T14:25:22.555Z,99376.47
2023-07-31T14:27:49.977Z,99368.94
2023-07-31T14:30:18.208Z,99373.66
2023-07-31T14:32:45.736Z,99378.06
2023-07-31T14:35:13.126Z,99368.94
2023-07-31T14:37:41.618Z,99364.62
2023-07-31T14:40:09.589Z,99362.69
2023-07-31T14:42:37.139Z,99373.22
2023-07-31T14:45:05.644Z,99358.09
2023-07-31T14:47:33.275Z,99368.06
2023-07-31T14:50:00.952Z,99361.50
2023-07-31T14:52:28.629Z,99351.78
2023-07-31T14:54:56.021Z,99350.44
2023-07-31T14:57:25.397Z,99364.78
2023-07-31T14:59:54.418Z,99349.41
2023-07-31T15:02:22.126Z,99343.13
2023-07-31T15:04:49.503Z,99339.97
2023-07-31T15:07:17.184Z,99331.78
2023-07-31T15:09:44.565Z,99346.47
2023-07-31T15:12:11.978Z,99343.72
2023-07-31T15:14:39.681Z,99338.63
2023-07-31T15:17:07.152Z,99329.06
2023-07-31T15:19:36.138Z,99341.38
2023-07-31T15:22:04.710Z,99340.41
2023-07-31T15:24:32.339Z,99340.06
2023-07-31T15:26:59.963Z,99337.06
2023-07-31T15:29:27.663Z,99335.59
2023-07-31T15:31:55.062Z,99330.56
2023-07-31T15:34:22.464Z,99320.97
2023-07-31T15:36:50.135Z,99315.53
2023-07-31T15:39:17.529Z,99326.56
2023-07-31T15:41:45.022Z,99319.00
2023-07-31T15:44:12.810Z,99319.97
2023-07-31T15:46:40.390Z,99319.38
2023-07-31T15:49:08.026Z,99313.84
2023-07-31T15:51:35.714Z,99301.03
2023-07-31T15:54:03.182Z,99310.09
2023-07-31T15:56:30.535Z,99302.88
2023-07-31T15:58:59.628Z,99303.34
2023-07-31T16:01:27.190Z,99303.91
2023-07-31T16:03:54.968Z,99303.16
2023-07-31T16:06:22.385Z,99303.00
2023-07-31T16:08:49.942Z,99307.72
2023-07-31T16:11:17.569Z,99281.72
2023-07-31T16:13:44.997Z,99294.09
2023-07-31T16:16:12.406Z,99286.34
2023-07-31T16:18:40.097Z,99303.53
2023-07-31T16:21:07.529Z,99286.59
2023-07-31T16:23:34.941Z,99312.69
2023-07-31T16:26:02.651Z,99306.03
2023-07-31T16:28:30.095Z,99293.81
2023-07-31T16:30:57.485Z,99307.53
2023-07-31T16:33:25.305Z,99296.09
2023-07-31T16:35:52.725Z,99301.31
2023-07-31T16:38:20.125Z,99300.25
2023-07-31T16:40:48.384Z,99301.38
2023-07-31T16:43:15.851Z,99304.66
2023-07-31T16:45:43.344Z,99297.22
2023-07-31T16:48:11.126Z,99297.59
2023-07-31T16:50:38.571Z,99302.22
2023-07-31T16:53:05.929Z,99298.06
2023-07-31T16:55:35.222Z,99295.44
2023-07-31T16:58:02.591Z,99286.44
2023-07-31T17:00:30.691Z,99287.56
2023-07-31T17:02:59.048Z,99301.53
2023-07-31T17:05:26.602Z,99296.34
2023-07-31T17:07:54.024Z,99287.34
2023-07-31T17:10:21.683Z,99296.81
2023-07-31T17:12:49.069Z,99299.06
2023-07-31T17:15:16.528Z,99300.66
2023-07-31T17:17:44.231Z,99303.34
2023-07-31T17:20:12.829Z,99308.84
2023-07-31T17:22:48.599Z,99315.56
2023-07-31T17:25:20.119Z,99317.28
2023-07-31T17:27:50.048Z,99318.38
2023-07-31T17:30:19.094Z,99313.84
2023-07-31T17:32:46.540Z,99315.34
2023-07-31T17:35:13.992Z,99317.16
2023-07-31T17:37:41.659Z,99307.63
2023-07-31T17:40:09.553Z,99303.94
2023-07-31T17:42:36.926Z,99308.47
2023-07-31T17:45:04.905Z,99315.09
2023-07-31T17:47:32.360Z,99312.47
2023-07-31T17:49:59.824Z,99306.81
2023-07-31T17:52:27.484Z,99313.00
2023-07-31T17:54:55.383Z,99299.31
2023-07-31T17:57:22.887Z,99297.47
2023-07-31T17:59:52.091Z,99292.78
2023-07-31T18:02:20.011Z,99293.94
2023-07-31T18:04:47.801Z,99292.66
2023-07-31T18:07:15.192Z,99297.19
2023-07-31T18:09:42.616Z,99300.06
2023-07-31T18:12:10.312Z,99311.34
2023-07-31T18:14:38.929Z,99312.44
2023-07-31T18:17:06.827Z,99319.97
2023-07-31T18:19:34.629Z,99312.22
2023-07-31T18:22:02.110Z,99326.41
2023-07-31T18:24:29.521Z,99310.94
2023-07-31T18:26:57.802Z,99313.91
2023-07-31T18:29:25.628Z,99321.66
2023-07-31T18:31:53.056Z,99322.00
2023-07-31T18:34:20.723Z,99326.59
2023-07-31T18:36:48.112Z,99332.34
2023-07-31T18:39:15.508Z,99331.84
2023-07-31T18:41:43.187Z,99337.28
2023-07-31T18:44:10.718Z,99339.00
2023-07-31T18:46:38.531Z,99332.16
2023-07-31T18:49:06.540Z,99329.16
2023-07-31T18:51:38.509Z,99329.16
2023-07-31T18:54:06.500Z,99334.09
2023-07-31T18:56:34.115Z,99330.03
2023-07-31T18:59:02.174Z,99331.94
2023-07-31T19:01:29.841Z,99332.19
2023-07-31T19:03:59.395Z,99339.00
2023-07-31T19:06:26.885Z,99344.41
2023-07-31T19:08:58.306Z,99331.13
2023-07-31T19:11:32.512Z,99337.66
2023-07-31T19:14:01.299Z,99342.81
2023-07-31T19:16:28.905Z,99344.44
2023-07-31T19:18:56.438Z,99343.34
2023-07-31T19:21:24.157Z,99347.44
2023-07-31T19:23:51.659Z,99345.25
2023-07-31T19:26:19.320Z,99345.53
2023-07-31T19:28:46.958Z,99336.84
2023-07-31T19:31:14.369Z,99337.66
2023-07-31T19:33:41.793Z,99343.91
2023-07-31T19:36:09.444Z,99346.59
2023-07-31T19:38:37.050Z,99344.69
2023-07-31T19:41:05.054Z,99346.00
2023-07-31T19:43:32.669Z,99355.97
2023-07-31T19:46:00.082Z,99347.13
2023-07-31T19:48:27.581Z,99347.94
2023-07-31T19:50:55.256Z,99352.81
2023-07-31T19:53:22.635Z,99354.97
2023-07-31T19:55:50.370Z,99357.09
2023-07-31T19:58:18.082Z,99360.03
2023-07-31T20:00:45.430Z,99360.13
2023-07-31T20:03:13.106Z,99360.53
2023-07-31T20:05:42.307Z,99352.38
2023-07-31T20:08:09.716Z,99356.41
2023-07-31T20:10:37.413Z,99349.75
2023-07-31T20:13:04.786Z,99346.25
2023-07-31T20:15:32.202Z,99349.69
2023-07-31T20:17:59.903Z,99347.38
2023-07-31T20:20:27.316Z,99348.22
2023-07-31T20:22:54.760Z,99355.63
2023-07-31T20:25:22.438Z,99346.19
2023-07-31T20:27:49.819Z,99342.66
2023-07-31T20:30:17.244Z,99353.94
2023-07-31T20:32:45.684Z,99346.37
2023-07-31T20:35:13.139Z,99346.84
2023-07-31T20:37:40.535Z,99341.53
2023-07-31T20:40:08.872Z,99348.53
2023-07-31T20:42:36.316Z,99346.97
2023-07-31T20:45:03.953Z,99349.62
2023-07-31T20:47:31.923Z,99354.72
2023-07-31T20:49:59.313Z,99344.28
2023-07-31T20:52:26.713Z,99354.44
2023-07-31T20:54:54.348Z,99357.84
2023-07-31T20:57:21.763Z,99352.28
2023-07-31T20:59:49.204Z,99344.94
2023-07-31T21:02:16.934Z,99346.47
2023-07-31T21:04:44.433Z,99340.28
2023-07-31T21:07:16.025Z,99344.56
2023-07-31T21:09:48.540Z,99342.06
2023-07-31T21:12:16.069Z,99335.00
2023-07-31T21:14:43.899Z,99327.91
2023-07-31T21:17:11.594Z,99320.78
2023-07-31T21:19:38.997Z,99330.63
2023-07-31T21:22:06.730Z,99327.94
2023-07-31T21:24:34.122Z,99325.13
2023-07-31T21:27:01.492Z,99325.50
2023-07-31T21:29:29.162Z,99332.81
2023-07-31T21:31:57.866Z,99339.63
2023-07-31T21:34:25.508Z,99344.75
2023-07-31T21:36:53.179Z,99325.69
2023-07-31T21:39:21.263Z,99327.56
2023-07-31T21:41:48.658Z,99331.19
2023-07-31T21:44:16.302Z,99326.69
2023-07-31T21:46:43.970Z,99328.38
2023-07-31T21:49:11.580Z,99326.84
2023-07-31T21:51:39.254Z,99328.22
2023-07-31T21:54:06.700Z,99320.47
2023-07-31T21:56:34.071Z,99333.44
2023-07-31T21:59:01.765Z,99336.22
2023-07-31T22:01:29.128Z,99317.00
2023-07-31T22:03:56.810Z,99314.03
2023-07-31T22:06:24.194Z,99315.50
2023-07-31T22:08:51.613Z,99315.06
2023-07-31T22:11:21.467Z,99306.56
2023-07-31T22:13:49.030Z,99306.69
2023-07-31T22:16:16.474Z,99304.44
2023-07-31T22:18:44.278Z,99310.69
2023-07-31T22:21:11.714Z,99306.47
2023-07-31T22:23:39.119Z,99297.16
2023-07-31T22:26:06.801Z,99297.59
2023-07-31T22:28:34.210Z,99300.22
2023-07-31T22:31:01.610Z,99291.56
2023-07-31T22:33:29.231Z,99291.03
2023-07-31T22:35:56.643Z,99293.09
2023-07-31T22:38:24.026Z,99280.28
2023-07-31T22:40:51.660Z,99281.75
2023-07-31T22:43:19.099Z,99284.84
2023-07-31T22:45:47.088Z,99277.84
2023-07-31T22:48:14.789Z,99275.25
2023-07-31T22:50:42.282Z,99272.88
2023-07-31T22:53:09.733Z,99273.50
2023-07-31T22:55:37.420Z,99268.22
2023-07-31T22:58:04.857Z,99265.06
2023-07-31T23:00:32.332Z,99264.53
2023-07-31T23:03:00.073Z,99264.53
2023-07-31T23:05:27.550Z,99255.03
2023-07-31T23:07:54.988Z,99257.25
2023-07-31T23:10:22.624Z,99256.22
2023-07-31T23:12:49.985Z,99254.84
2023-07-31T23:15:17.397Z,99257.94
2023-07-31T23:17:45.143Z,99255.66
2023-07-31T23:20:12.562Z,99253.03
2023-07-31T23:22:39.982Z,99248.38
2023-07-31T23:25:08.025Z,99244.53
2023-07-31T23:27:35.415Z,99238.75
2023-07-31T23:30:02.989Z,99242.41
2023-07-31T23:32:30.693Z,99235.72
2023-07-31T23:34:58.138Z,99241.19
2023-07-31T23:37:25.550Z,99232.69
2023-07-31T23:39:53.218Z,99225.88
2023-07-31T23:42:20.602Z,99227.50
2023-07-31T23:44:56.757Z,99217.28
2023-07-31T23:47:32.591Z,99215.53
2023-07-31T23:50:00.194Z,99218.72
2023-07-31T23:52:27.593Z,99210.25
2023-07-31T23:54:55.297Z,99214.25
2023-07-31T23:57:22.730Z,99212.94
2023-07-31T23:59:50.140Z,99205.50
